Saline, United Kingdom
Current Conditions -  °F | °C
As of 5:20 AM on Tuesday 21 Oct 2014 (Local Time) from EGPH Reporting Station
Overcast Overcast  
Wind Chill: 13°   Ceiling: 1900
Heat Index: 13°   Visibility: 6mi
Dew Point: 10°   Wind: 22mph
Humidity: 82%   Direction: 220°SW
Pressure: 29"   Gusts: NA
Location:  56.11°N, 3.57°W
Report Text: EGPH 210420Z 22019KT 9999 BKN019 OVC024 13/10 Q0982
Loading
Personal Weather Stations






























Interactive Weather Map
Tropical Storm Tracking
New forecast layout! Learn more

10-Day Weather Forecast

Advertisements
Track Severe Weather on mobile